Time;durP1;ratioP1;P1;durP2;ratioP2;P2;SDS_P1;SDS_P2;PMS_P1;PMS_P2;Temp;Humidity;BMP_temperature;BMP_pressure;BME280_temperature;BME280_humidity;BME280_pressure;Samples;Min_cycle;Max_cycle;Signal;HPM_P1;HPM_P2
2023/01/09 00:01:58;;;;;;;16.20;8.50;;;;;;;-6.43;72.92;100460.46;110059;1264;139413;-72
2023/01/09 00:04:24;;;;;;;;;;;;;;;-6.41;72.64;100455.40;110187;1278;22510;-72
2023/01/09 00:06:54;;;;;;;14.10;6.70;;;;;;;-6.40;72.67;100451.79;110055;1273;124899;-72
2023/01/09 00:09:29;;;;;;;15.30;8.30;;;;;;;-6.39;72.59;100443.55;110169;1277;22355;-72
2023/01/09 00:11:56;;;;;;;16.40;8.20;;;;;;;-6.40;72.58;100449.30;110180;1278;22254;-72
2023/01/09 00:14:23;;;;;;;17.70;8.50;;;;;;;-6.41;72.51;100448.52;110069;1278;138138;-72
2023/01/09 00:16:49;;;;;;;15.50;7.90;;;;;;;-6.40;72.73;100452.84;110185;1276;22453;-72
2023/01/09 00:19:16;;;;;;;19.10;7.80;;;;;;;-6.38;72.72;100457.66;110058;1278;138769;-72
2023/01/09 00:21:42;;;;;;;15.30;7.60;;;;;;;-6.36;72.73;100464.58;110180;1273;23039;-72
2023/01/09 00:24:09;;;;;;;16.80;7.90;;;;;;;-6.33;72.67;100462.67;110217;1271;22233;-72
2023/01/09 00:26:36;;;;;;;;;;;;;;;-6.29;72.63;100460.21;110134;1278;138282;-73
2023/01/09 00:29:03;;;;;;;15.50;7.60;;;;;;;-6.26;72.62;100456.61;110105;1278;22239;-71
2023/01/09 00:31:29;;;;;;;19.80;8.80;;;;;;;-6.25;72.66;100456.68;110089;1278;138248;-72
2023/01/09 00:34:03;;;;;;;17.90;8.30;;;;;;;-6.28;72.28;100446.33;110177;1273;22482;-71
2023/01/09 00:36:30;;;;;;;14.70;7.20;;;;;;;-6.23;72.19;100449.14;110002;1273;139106;-71
2023/01/09 00:38:56;;;;;;;15.60;8.20;;;;;;;-6.22;72.38;100449.52;110210;1276;22219;-72
2023/01/09 00:41:38;;;;;;;13.40;7.20;;;;;;;-6.20;71.97;100442.13;106070;1273;22542;-71
2023/01/09 00:44:19;;;;;;;16.90;7.70;;;;;;;-6.22;71.90;100436.95;110017;1277;138864;-72
2023/01/09 00:46:48;;;;;;;15.10;7.30;;;;;;;-6.17;71.89;100433.03;110051;1278;22207;-72
2023/01/09 00:49:15;;;;;;;20.60;8.10;;;;;;;-6.18;71.86;100430.60;110011;1278;138891;-71
2023/01/09 00:51:41;;;;;;;15.20;8.00;;;;;;;-6.17;71.75;100428.79;110216;1278;22227;-71
2023/01/09 00:54:09;;;;;;;20.00;8.10;;;;;;;-6.15;71.51;100417.46;110248;1273;22249;-72
2023/01/09 00:56:36;;;;;;;18.70;8.10;;;;;;;-6.15;71.32;100412.70;110115;1278;139159;-71
2023/01/09 00:59:03;;;;;;;17.60;8.40;;;;;;;-6.14;71.25;100407.70;107219;1270;22648;-72
2023/01/09 01:01:30;;;;;;;15.40;8.00;;;;;;;-6.13;71.20;100401.36;105858;1274;138352;-71
2023/01/09 01:03:57;;;;;;;15.00;7.60;;;;;;;-6.11;71.21;100402.83;106054;1271;22670;-71
2023/01/09 01:09:09;;;;;;;14.50;7.40;;;;;;;-6.11;71.19;100400.65;110096;1273;22340;-71
2023/01/09 01:11:36;;;;;;;14.40;7.50;;;;;;;-6.11;71.22;100393.10;110154;1271;22407;-72
2023/01/09 01:14:02;;;;;;;15.10;8.00;;;;;;;-6.09;70.86;100389.41;110032;1278;138251;-71
2023/01/09 01:16:29;;;;;;;17.40;9.10;;;;;;;-6.10;70.80;100383.98;110219;1278;22420;-71
2023/01/09 01:18:56;;;;;;;20.20;8.30;;;;;;;-6.09;70.91;100384.27;109957;1278;139158;-72
2023/01/09 01:21:23;;;;;;;17.40;8.10;;;;;;;-6.08;70.87;100385.54;110187;1278;22865;-72
2023/01/09 01:23:49;;;;;;;16.40;7.30;;;;;;;-6.04;70.88;100380.29;110211;1276;22450;-71
2023/01/09 01:26:16;;;;;;;16.90;8.50;;;;;;;-6.01;70.79;100378.33;110075;1278;140094;-71
2023/01/09 01:28:43;;;;;;;;;;;;;;;-6.00;70.96;100374.31;110180;1278;22410;-71
2023/01/09 01:31:15;;;;;;;18.20;6.90;;;;;;;-5.99;70.92;100364.69;110101;1278;124893;-71
2023/01/09 01:33:41;;;;;;;17.30;8.10;;;;;;;-5.99;70.76;100358.83;110150;1278;22228;-71
2023/01/09 01:36:08;;;;;;;17.60;7.80;;;;;;;-5.99;70.86;100358.48;110145;1272;23395;-71
2023/01/09 01:38:35;;;;;;;15.60;6.30;;;;;;;-5.98;70.59;100356.60;110085;1278;139285;-71
2023/01/09 01:41:02;;;;;;;11.90;6.20;;;;;;;-5.97;70.74;100352.66;110193;1273;22197;-71
2023/01/09 01:43:47;;;;;;;;;;;;;;;-5.95;70.61;100351.45;110096;1273;140167;-72
2023/01/09 01:46:16;;;;;;;14.40;6.30;;;;;;;-5.93;70.68;100351.30;110192;1278;22924;-72
2023/01/09 01:48:42;;;;;;;12.90;6.70;;;;;;;-5.92;70.66;100350.29;110070;1278;138406;-71
2023/01/09 01:51:10;;;;;;;14.60;6.60;;;;;;;-5.92;70.79;100351.89;110188;1273;22408;-72
2023/01/09 01:53:39;;;;;;;14.90;7.10;;;;;;;-5.91;70.82;100348.39;110098;1278;22392;-72
2023/01/09 01:56:29;;;;;;;12.90;6.30;;;;;;;-5.90;70.76;100347.73;110060;1278;138274;-71
2023/01/09 01:59:02;;;;;;;11.30;6.10;;;;;;;-5.87;70.68;100337.10;110073;1273;22949;-71
2023/01/09 02:01:29;;;;;;;15.30;6.50;;;;;;;-5.86;70.76;100333.95;110010;1271;139578;-71
2023/01/09 02:03:56;;;;;;;13.40;6.80;;;;;;;-5.85;70.55;100329.64;110146;1272;22426;-71
2023/01/09 02:06:23;;;;;;;14.30;7.90;;;;;;;-5.86;70.70;100326.88;110011;1273;23169;-71
2023/01/09 02:08:50;;;;;;;13.00;6.80;;;;;;;-5.86;70.89;100315.95;110063;1278;138069;-71
2023/01/09 02:11:17;;;;;;;16.50;6.60;;;;;;;-5.86;70.80;100316.40;110202;1278;22203;-71
2023/01/09 02:13:44;;;;;;;15.00;7.20;;;;;;;-5.86;70.89;100313.23;110074;1278;139978;-71
2023/01/09 02:16:17;;;;;;;;;;;;;;;-5.88;70.73;100310.72;110095;1277;23432;-71
2023/01/09 02:19:06;;;;;;;16.60;7.10;;;;;;;-5.90;71.17;100307.64;110066;1278;124515;-72
2023/01/09 02:22:07;;;;;;;19.90;10.00;;;;;;;-5.91;71.34;100302.89;110173;1278;22209;-72
2023/01/09 02:24:55;;;;;;;14.50;6.70;;;;;;;-5.93;71.49;100295.16;109499;1285;139171;-71
2023/01/09 02:28:03;;;;;;;13.90;6.80;;;;;;;-5.96;71.69;100291.32;109749;1284;22874;-72
2023/01/09 02:30:43;;;;;;;12.10;6.50;;;;;;;-5.98;72.03;100289.39;109529;1284;139490;-70
2023/01/09 02:33:30;;;;;;;12.10;5.60;;;;;;;-6.01;72.39;100284.87;109589;1285;22433;-72
2023/01/09 02:35:59;;;;;;;12.90;6.50;;;;;;;-6.03;72.94;100284.94;109716;1278;22284;-72
2023/01/09 02:39:11;;;;;;;10.70;5.90;;;;;;;-6.04;73.30;100290.13;109599;1285;138148;-72
2023/01/09 02:41:41;;;;;;;12.50;5.90;;;;;;;-6.05;73.54;100288.92;109245;1285;23045;-72
2023/01/09 02:44:10;;;;;;;12.80;5.80;;;;;;;-6.03;73.99;100284.38;109117;1284;138740;-71
2023/01/09 02:46:38;;;;;;;17.80;9.10;;;;;;;-6.01;74.17;100285.04;109266;1287;22610;-72
2023/01/09 02:49:04;;;;;;;;;;;;;;;-5.98;74.19;100284.27;109137;1292;138411;-72
2023/01/09 02:51:35;;;;;;;24.10;9.40;;;;;;;-5.97;74.24;100278.19;109259;1292;23120;-72
2023/01/09 02:54:31;;;;;;;14.40;7.40;;;;;;;-5.99;74.54;100275.75;109104;1286;22286;-72
2023/01/09 02:57:13;;;;;;;13.80;6.60;;;;;;;-6.04;74.87;100273.79;109247;1292;22267;-72
2023/01/09 02:59:44;;;;;;;12.70;6.00;;;;;;;-6.06;75.16;100272.89;109124;1292;22362;-72
2023/01/09 03:02:22;;;;;;;13.20;7.00;;;;;;;-6.09;75.37;100272.48;109426;1283;139789;-72
2023/01/09 03:05:13;;;;;;;16.20;7.70;;;;;;;-6.10;75.87;100269.07;109704;1282;22377;-72
2023/01/09 03:07:52;;;;;;;13.00;6.40;;;;;;;-6.13;75.95;100275.50;109526;1285;139562;-73
2023/01/09 03:10:22;;;;;;;13.30;6.70;;;;;;;-6.16;76.42;100274.86;109689;1280;22221;-73
2023/01/09 03:12:50;;;;;;;12.40;6.00;;;;;;;-6.18;76.81;100273.07;109505;1280;140220;-72
2023/01/09 03:15:17;;;;;;;12.90;6.20;;;;;;;-6.17;77.11;100269.42;109811;1278;22196;-72
2023/01/09 03:17:45;;;;;;;12.00;6.40;;;;;;;-6.15;77.41;100271.21;110191;1278;22231;-72
2023/01/09 03:20:13;;;;;;;11.00;5.70;;;;;;;-6.15;77.48;100265.23;109892;1277;138355;-72
2023/01/09 03:22:46;;;;;;;11.50;5.70;;;;;;;-6.17;77.86;100264.84;110077;1272;22358;-72
2023/01/09 03:25:14;;;;;;;10.50;5.80;;;;;;;-6.19;77.94;100261.90;109908;1279;138842;-72
2023/01/09 03:27:40;;;;;;;13.00;6.40;;;;;;;-6.23;78.42;100252.35;110187;1275;22310;-72
2023/01/09 03:30:09;;;;;;;12.10;6.30;;;;;;;-6.28;78.71;100251.88;110209;1278;22195;-72
2023/01/09 03:32:36;;;;;;;17.30;6.60;;;;;;;-6.29;78.92;100245.81;110056;1275;138161;-72
2023/01/09 03:35:03;;;;;;;13.00;6.10;;;;;;;-6.31;79.19;100245.44;110178;1271;23211;-72
2023/01/09 03:37:29;;;;;;;;;;;;;;;-6.33;79.47;100242.73;110125;1278;138602;-72
2023/01/09 03:39:58;;;;;;;12.10;5.80;;;;;;;-6.33;79.59;100242.27;110173;1278;22206;-72
2023/01/09 03:42:25;;;;;;;7.70;4.60;;;;;;;-6.35;79.88;100245.79;110157;1273;22363;-72
2023/01/09 03:44:51;;;;;;;11.70;5.40;;;;;;;-6.38;80.29;100242.48;110085;1272;138743;-73
2023/01/09 03:47:18;;;;;;;10.80;5.50;;;;;;;-6.42;80.20;100238.75;110058;1278;22883;-73
2023/01/09 03:49:44;;;;;;;11.60;5.90;;;;;;;-6.43;80.37;100238.99;110105;1278;138103;-72
2023/01/09 03:52:12;;;;;;;14.30;5.10;;;;;;;-6.43;80.99;100237.96;110200;1270;22338;-72
2023/01/09 03:54:39;;;;;;;12.30;5.50;;;;;;;-6.45;80.87;100242.52;110058;1278;138356;-72
2023/01/09 03:57:06;;;;;;;;;;;;;;;-6.46;80.95;100242.29;110175;1272;22410;-72
2023/01/09 03:59:33;;;;;;;11.00;5.10;;;;;;;-6.46;81.18;100234.48;110203;1278;22374;-71
2023/01/09 04:01:59;;;;;;;8.90;4.70;;;;;;;-6.46;81.28;100232.73;110077;1272;139358;-73
2023/01/09 04:04:30;;;;;;;8.50;5.40;;;;;;;-6.45;81.48;100227.23;110180;1273;22338;-72
2023/01/09 04:06:57;;;;;;;10.90;5.50;;;;;;;-6.46;81.61;100229.55;110086;1278;139125;-72
2023/01/09 04:09:24;;;;;;;;;;;;;;;-6.45;81.77;100226.64;110239;1276;23671;-72
2023/01/09 04:11:50;;;;;;;9.80;5.20;;;;;;;-6.43;81.85;100222.47;110224;1271;22343;-71
2023/01/09 04:14:18;;;;;;;11.70;5.00;;;;;;;-6.40;82.16;100224.16;110119;1278;138157;-72
2023/01/09 04:18:38;;;;;;;10.70;5.50;;;;;;;-6.37;82.16;100217.01;103057;1307;544970;-72
2023/01/09 04:21:04;;;;;;;11.40;6.90;;;;;;;-6.39;82.35;100214.38;105148;1288;22925;-72
2023/01/09 04:23:31;;;;;;;;;;;;;;;-6.40;82.51;100218.70;105061;1288;22561;-71
2023/01/09 04:25:58;;;;;;;11.90;5.50;;;;;;;-6.45;82.69;100217.80;104962;1290;124180;-73
2023/01/09 04:28:24;;;;;;;;;;;;;;;-6.49;82.93;100211.62;104980;1282;22524;-72
2023/01/09 04:30:51;;;;;;;14.60;6.70;;;;;;;-6.54;83.13;100199.58;104997;1284;123782;-72
2023/01/09 04:33:18;;;;;;;11.50;6.50;;;;;;;-6.58;83.38;100196.39;104952;1288;97510;-73
2023/01/09 04:35:45;;;;;;;12.20;5.90;;;;;;;-6.63;83.54;100200.19;105886;1272;22552;-73
2023/01/09 04:38:11;;;;;;;;;;;;;;;-6.66;83.78;100197.83;105770;1276;138164;-72
2023/01/09 04:40:38;;;;;;;13.70;6.40;;;;;;;-6.69;84.09;100194.34;105952;1272;22538;-73
2023/01/09 04:43:05;;;;;;;;;;;;;;;-6.71;84.38;100190.64;106011;1277;137987;-72
2023/01/09 04:45:31;;;;;;;15.90;8.00;;;;;;;-6.78;84.56;100178.50;105857;1272;24543;-72
2023/01/09 04:47:58;;;;;;;15.10;8.40;;;;;;;-6.74;84.87;100195.30;105725;1272;26198;-73
2023/01/09 04:50:25;;;;;;;;;;;;;;;-6.75;85.06;100195.21;105802;1269;138717;-73
2023/01/09 04:52:52;;;;;;;28.50;11.60;;;;;;;-6.77;85.28;100197.99;105938;1269;25125;-72
2023/01/09 04:55:18;;;;;;;18.90;9.20;;;;;;;-6.76;85.39;100191.58;105681;1276;138375;-72
2023/01/09 04:57:45;;;;;;;;;;;;;;;-6.75;85.63;100184.92;105903;1276;22964;-73
2023/01/09 05:00:12;;;;;;;11.60;6.20;;;;;;;-6.74;86.00;100189.08;105819;1276;25392;-74
2023/01/09 05:02:39;;;;;;;15.00;7.30;;;;;;;-6.73;86.24;100185.88;110236;1275;138483;-73
2023/01/09 05:05:07;;;;;;;13.50;7.00;;;;;;;-6.73;86.53;100189.56;110112;1276;22393;-73
2023/01/09 05:07:37;;;;;;;11.20;6.50;;;;;;;-6.73;86.72;100190.13;110001;1276;137460;-72
2023/01/09 05:10:04;;;;;;;;;;;;;;;-6.72;86.95;100189.27;110168;1276;22511;-72
2023/01/09 05:12:30;;;;;;;11.10;6.40;;;;;;;-6.73;87.16;100180.73;110292;1277;22221;-72
2023/01/09 05:14:57;;;;;;;11.30;6.00;;;;;;;-6.68;87.21;100184.84;110113;1277;22334;-72
2023/01/09 05:17:24;;;;;;;;;;;;;;;-6.67;87.36;100187.05;110110;1278;22437;-72
2023/01/09 05:19:51;;;;;;;13.50;7.20;;;;;;;-6.69;87.52;100183.00;110027;1278;125361;-71
2023/01/09 05:22:17;;;;;;;;;;;;;;;-6.63;87.63;100187.27;110122;1277;22402;-72
2023/01/09 05:24:44;;;;;;;10.60;6.40;;;;;;;-6.62;88.00;100183.79;110095;1275;124398;-72
2023/01/09 05:27:11;;;;;;;;;;;;;;;-6.61;87.88;100182.63;110428;1278;22411;-72
2023/01/09 05:29:38;;;;;;;12.60;6.70;;;;;;;-6.64;88.15;100173.73;108772;1277;22636;-72
2023/01/09 05:32:04;;;;;;;11.40;5.80;;;;;;;-6.57;88.16;100181.62;105912;1276;138272;-72
2023/01/09 05:34:31;;;;;;;14.00;7.50;;;;;;;-6.56;88.02;100174.42;105954;1272;22728;-73
2023/01/09 05:36:58;;;;;;;;;;;;;;;-6.55;88.09;100172.77;105822;1278;139036;-73
2023/01/09 05:39:24;;;;;;;18.10;8.30;;;;;;;-6.55;88.24;100173.68;105843;1272;22552;-73
2023/01/09 05:41:51;;;;;;;;;;;;;;;-6.55;88.30;100174.52;105885;1278;22537;-73
2023/01/09 05:44:18;;;;;;;21.20;10.10;;;;;;;-6.55;88.20;100173.29;105823;1277;124755;-73
2023/01/09 05:46:45;;;;;;;16.70;8.50;;;;;;;-6.55;88.41;100176.16;106058;1277;22645;-74
2023/01/09 05:49:11;;;;;;;17.10;8.80;;;;;;;-6.54;88.22;100176.92;105658;1277;138014;-73
2023/01/09 05:51:38;;;;;;;15.30;8.30;;;;;;;-6.53;88.26;100173.66;105974;1272;25266;-73
2023/01/09 05:54:06;;;;;;;20.00;8.60;;;;;;;-6.52;88.10;100175.17;105819;1277;26259;-72
2023/01/09 05:56:33;;;;;;;17.50;8.80;;;;;;;-6.56;88.24;100166.83;105683;1272;138239;-72
2023/01/09 05:58:59;;;;;;;;;;;;;;;-6.48;88.04;100176.57;105924;1276;22504;-72
2023/01/09 06:01:26;;;;;;;11.60;6.90;;;;;;;-6.46;88.11;100175.47;105629;1277;124603;-71
2023/01/09 06:03:53;;;;;;;11.50;6.50;;;;;;;-6.44;88.12;100175.48;105731;1273;23904;-72
2023/01/09 06:06:21;;;;;;;;;;;;;;;-6.41;88.23;100172.92;106023;1275;24218;-71
2023/01/09 06:08:48;;;;;;;;;;;;;;;-6.38;88.10;100168.52;105644;1277;124109;-71
2023/01/09 06:11:15;;;;;;;13.80;6.50;;;;;;;-6.38;88.11;100169.32;105882;1277;22903;-72
2023/01/09 06:13:41;;;;;;;;;;;;;;;-6.36;88.24;100166.37;105756;1279;139931;-71
2023/01/09 06:16:08;;;;;;;10.60;6.50;;;;;;;-6.35;88.14;100170.52;106019;1272;25497;-72
2023/01/09 06:18:35;;;;;;;18.10;8.50;;;;;;;-6.35;88.22;100168.05;105725;1277;138651;-73
2023/01/09 06:21:02;;;;;;;;;;;;;;;-6.35;88.26;100164.67;105833;1278;26466;-73
2023/01/09 06:23:29;;;;;;;15.90;7.40;;;;;;;-6.33;88.35;100160.08;105902;1278;25136;-71
2023/01/09 06:25:55;;;;;;;10.70;6.10;;;;;;;-6.31;88.41;100155.29;105637;1277;139541;-73
2023/01/09 06:28:22;;;;;;;12.20;6.90;;;;;;;-6.29;88.33;100157.79;105756;1276;22644;-71
2023/01/09 06:30:50;;;;;;;14.00;6.30;;;;;;;-6.27;88.31;100158.97;105673;1272;138702;-71
2023/01/09 06:33:18;;;;;;;9.30;5.70;;;;;;;-6.25;88.46;100160.80;110029;1277;23287;-71
2023/01/09 06:35:44;;;;;;;13.10;6.10;;;;;;;-6.24;88.41;100157.84;110101;1277;22197;-72
2023/01/09 06:38:11;;;;;;;;;;;;;;;-6.21;88.62;100153.19;110123;1275;138355;-72
2023/01/09 06:40:38;;;;;;;11.80;6.30;;;;;;;-6.20;88.59;100150.36;110181;1270;22372;-72
2023/01/09 06:43:05;;;;;;;20.60;9.40;;;;;;;-6.17;88.71;100147.31;110012;1278;138510;-72
2023/01/09 06:45:32;;;;;;;;;;;;;;;-6.15;89.00;100145.17;110037;1271;22540;-72
2023/01/09 06:47:58;;;;;;;23.90;9.50;;;;;;;-6.13;89.10;100141.87;110008;1278;22890;-74
2023/01/09 06:50:25;;;;;;;17.20;8.60;;;;;;;-6.11;89.29;100144.69;109905;1278;138968;-73
2023/01/09 06:52:52;;;;;;;14.60;7.80;;;;;;;-6.09;89.20;100147.16;110157;1277;22209;-73
2023/01/09 06:55:19;;;;;;;17.00;8.30;;;;;;;-6.07;89.30;100142.89;109944;1278;138138;-73
2023/01/09 06:57:45;;;;;;;;;;;;;;;-6.04;89.23;100152.84;110085;1272;22425;-73
2023/01/09 07:00:12;;;;;;;13.90;7.40;;;;;;;-6.02;89.25;100154.86;110032;1272;22241;-73
2023/01/09 07:02:39;;;;;;;19.10;8.90;;;;;;;-6.01;89.31;100157.07;109964;1272;138123;-73
2023/01/09 07:05:07;;;;;;;14.40;8.20;;;;;;;-5.99;89.15;100152.30;110048;1277;22344;-73
2023/01/09 07:07:34;;;;;;;13.70;7.40;;;;;;;-5.99;89.24;100144.33;109896;1277;138387;-73
2023/01/09 07:10:01;;;;;;;;;;;;;;;-5.92;89.32;100148.66;109971;1278;22398;-72
2023/01/09 07:12:27;;;;;;;12.90;6.60;;;;;;;-5.89;89.46;100147.78;109954;1278;22375;-72
2023/01/09 07:14:54;;;;;;;19.80;8.10;;;;;;;-5.86;89.34;100145.23;110000;1278;139025;-73
2023/01/09 07:17:23;;;;;;;18.00;8.40;;;;;;;-5.84;89.36;100144.84;110092;1279;22200;-73
2023/01/09 07:19:50;;;;;;;;;;;;;;;-5.82;89.24;100143.42;110004;1270;138454;-73
2023/01/09 07:22:16;;;;;;;10.00;6.20;;;;;;;-5.79;89.15;100143.88;110149;1272;22970;-74
2023/01/09 07:24:43;;;;;;;13.30;5.90;;;;;;;-5.78;89.34;100141.24;109984;1278;138864;-73
2023/01/09 07:27:10;;;;;;;;;;;;;;;-5.75;89.30;100143.49;110150;1273;22403;-73
2023/01/09 07:29:37;;;;;;;13.40;7.00;;;;;;;-5.74;89.26;100141.43;110243;1276;22333;-72
2023/01/09 07:32:04;;;;;;;;;;;;;;;-5.72;89.41;100142.48;109999;1278;138349;-71
2023/01/09 07:34:30;;;;;;;11.10;5.80;;;;;;;-5.69;89.29;100145.46;110217;1276;22315;-71
2023/01/09 07:36:57;;;;;;;10.90;5.40;;;;;;;-5.70;89.32;100149.91;109989;1271;138567;-71
2023/01/09 07:39:24;;;;;;;11.20;5.20;;;;;;;-5.67;89.50;100154.27;109604;1273;22553;-69
2023/01/09 07:41:50;;;;;;;;;;;;;;;-5.64;89.68;100143.38;106048;1276;22528;-75
2023/01/09 07:44:19;;;;;;;12.50;7.10;;;;;;;-5.61;89.53;100141.16;105713;1278;125376;-75
2023/01/09 07:46:46;;;;;;;12.30;6.70;;;;;;;-5.59;89.93;100139.23;105855;1273;23046;-75
2023/01/09 07:49:13;;;;;;;10.50;6.10;;;;;;;-5.56;89.82;100138.26;105883;1278;138979;-75
2023/01/09 07:51:42;;;;;;;;;;;;;;;-5.55;89.85;100139.73;105911;1273;22509;-75
2023/01/09 07:54:10;;;;;;;12.60;6.50;;;;;;;-5.54;89.87;100141.05;110108;1276;23034;-74
2023/01/09 07:56:37;;;;;;;10.20;6.00;;;;;;;-5.52;90.06;100143.91;110134;1276;138253;-75
2023/01/09 07:59:04;;;;;;;14.30;7.90;;;;;;;-5.51;90.18;100146.77;110088;1276;22938;-75
2023/01/09 08:01:31;;;;;;;13.80;6.40;;;;;;;-5.47;90.26;100147.87;110002;1278;138186;-74
2023/01/09 08:03:58;;;;;;;14.80;6.90;;;;;;;-5.45;90.28;100146.20;110120;1279;22355;-75
2023/01/09 08:06:24;;;;;;;10.20;5.60;;;;;;;-5.43;90.16;100149.44;110077;1273;22206;-75
2023/01/09 08:08:51;;;;;;;14.20;6.90;;;;;;;-5.42;90.36;100144.68;110052;1276;139452;-74
2023/01/09 08:11:18;;;;;;;14.70;6.80;;;;;;;-5.41;90.40;100146.25;110058;1273;22868;-74
2023/01/09 08:13:45;;;;;;;;;;;;;;;-5.40;90.36;100140.23;109967;1279;139071;-74
2023/01/09 08:16:11;;;;;;;15.10;7.00;;;;;;;-5.38;90.50;100140.41;110001;1273;22523;-74
2023/01/09 08:18:38;;;;;;;;;;;;;;;-5.36;90.62;100141.70;109883;1273;138545;-73
2023/01/09 08:21:05;;;;;;;12.70;7.30;;;;;;;-5.34;90.57;100141.83;110001;1276;22417;-73
2023/01/09 08:23:32;;;;;;;;;;;;;;;-5.32;90.78;100140.27;110006;1279;22478;-74
2023/01/09 08:25:58;;;;;;;12.20;6.70;;;;;;;-5.29;90.68;100144.78;109958;1278;124972;-75
2023/01/09 08:28:25;;;;;;;10.10;5.60;;;;;;;-5.27;90.81;100139.27;110088;1272;22203;-74
2023/01/09 08:30:52;;;;;;;11.80;6.30;;;;;;;-5.24;90.76;100128.90;110005;1278;140133;-73
2023/01/09 08:33:19;;;;;;;10.40;6.90;;;;;;;-5.23;90.83;100127.96;110081;1278;22878;-74
2023/01/09 08:35:45;;;;;;;14.30;7.30;;;;;;;-5.21;90.71;100123.68;110033;1275;23506;-74
2023/01/09 08:38:12;;;;;;;;;;;;;;;-5.19;90.76;100119.08;109924;1279;138346;-74
2023/01/09 08:40:39;;;;;;;12.90;7.60;;;;;;;-5.17;90.85;100113.16;109980;1279;22893;-73
2023/01/09 08:48:36;;;;;;;12.40;6.70;;;;;;;-5.11;90.91;100096.02;109968;1274;138547;-72
2023/01/09 08:51:03;;;;;;;16.10;7.70;;;;;;;-5.15;90.78;100083.79;110056;1276;22818;-72
2023/01/09 08:53:30;;;;;;;12.80;6.90;;;;;;;-5.08;90.83;100084.37;110051;1277;22413;-72
2023/01/09 08:55:57;;;;;;;13.50;7.00;;;;;;;-5.06;90.86;100081.34;109975;1272;140102;-72
2023/01/09 08:58:24;;;;;;;12.00;6.70;;;;;;;-5.04;90.89;100076.20;110118;1273;22332;-72
2023/01/09 09:00:51;;;;;;;;;;;;;;;-5.03;91.03;100073.23;109958;1276;138615;-73
2023/01/09 09:03:18;;;;;;;19.70;6.50;;;;;;;-5.01;91.00;100075.54;109999;1279;22403;-73
2023/01/09 09:05:44;;;;;;;;;;;;;;;-5.01;90.92;100070.40;110009;1272;22426;-73
2023/01/09 09:08:12;;;;;;;15.00;6.90;;;;;;;-4.97;91.14;100067.26;109914;1278;125486;-73
2023/01/09 09:10:39;;;;;;;;;;;;;;;-4.98;91.07;100068.71;110076;1276;23581;-73
2023/01/09 09:13:06;;;;;;;9.80;5.30;;;;;;;-4.96;91.19;100066.58;109917;1273;126785;-73
2023/01/09 09:15:33;;;;;;;;;;;;;;;-4.94;91.24;100060.21;110060;1272;22465;-73
2023/01/09 09:18:01;;;;;;;9.70;6.60;;;;;;;-4.94;91.35;100061.44;110042;1272;22948;-73
2023/01/09 09:20:32;;;;;;;13.30;7.30;;;;;;;-4.92;91.44;100062.96;109875;1275;138457;-73
2023/01/09 09:22:59;;;;;;;13.00;6.80;;;;;;;-4.89;91.60;100054.71;110026;1274;22162;-74
2023/01/09 09:25:26;;;;;;;;;;;;;;;-4.87;91.72;100043.24;109979;1279;138382;-73
2023/01/09 09:27:55;;;;;;;12.50;7.10;;;;;;;-4.85;91.73;100042.51;110041;1279;22285;-73
2023/01/09 09:30:22;;;;;;;14.60;7.20;;;;;;;-4.84;91.88;100043.63;109983;1277;22857;-74
2023/01/09 09:32:49;;;;;;;12.60;6.50;;;;;;;-4.87;91.87;100042.29;109898;1279;138827;-73
2023/01/09 09:35:19;;;;;;;;;;;;;;;-4.80;92.11;100051.20;110074;1271;22418;-70
2023/01/09 09:37:56;;;;;;;12.10;6.50;;;;;;;-4.76;92.13;100049.35;109915;1273;124692;-71
2023/01/09 09:40:43;;;;;;;12.70;6.60;;;;;;;-4.72;92.23;100044.56;109996;1274;22185;-70
2023/01/09 09:46:41;;;;;;;13.60;6.90;;;;;;;-4.62;92.49;100044.73;109991;1276;22201;-70
2023/01/09 09:49:13;;;;;;;14.80;8.40;;;;;;;-4.59;92.28;100038.87;109714;1276;138603;-70
2023/01/09 09:51:49;;;;;;;13.80;7.70;;;;;;;-4.56;92.20;100037.55;109845;1283;22204;-70
2023/01/09 09:54:46;;;;;;;14.80;7.00;;;;;;;-4.54;92.31;100035.41;109852;1276;22275;-70
2023/01/09 09:57:15;;;;;;;15.40;8.00;;;;;;;-4.52;92.30;100038.04;109476;1286;22233;-70
2023/01/09 09:59:42;;;;;;;16.00;7.60;;;;;;;-4.52;92.28;100035.15;109271;1288;22788;-71
2023/01/09 10:02:49;;;;;;;14.20;7.30;;;;;;;-4.51;92.31;100025.05;105069;1288;139687;-71
2023/01/09 10:05:28;;;;;;;19.90;9.20;;;;;;;-4.51;92.55;100021.93;105944;1297;22950;-70
2023/01/09 10:07:55;;;;;;;12.90;7.10;;;;;;;-4.48;92.46;100018.14;104354;1295;139131;-70
2023/01/09 10:10:31;;;;;;;14.70;7.50;;;;;;;-4.47;92.55;100015.05;104458;1297;22595;-71
2023/01/09 10:12:58;;;;;;;12.00;7.50;;;;;;;-4.45;92.71;100017.69;104414;1296;138432;-70
2023/01/09 10:15:40;;;;;;;19.10;8.40;;;;;;;-4.44;92.65;100000.77;104402;1296;25457;-70
2023/01/09 10:18:25;;;;;;;13.20;7.60;;;;;;;-4.43;92.82;99998.84;104560;1292;25473;-70
2023/01/09 10:21:36;;;;;;;13.60;7.80;;;;;;;-4.43;92.85;99994.74;104470;1293;139578;-70
2023/01/09 10:24:15;;;;;;;25.20;14.90;;;;;;;-4.42;93.01;99996.05;104256;1301;25664;-70
2023/01/09 10:26:45;;;;;;;15.10;8.20;;;;;;;-4.40;93.20;99993.55;108414;1296;138477;-70
2023/01/09 10:29:36;;;;;;;31.90;16.60;;;;;;;-4.38;93.34;99993.88;108524;1296;23150;-71
2023/01/09 10:32:22;;;;;;;14.60;8.70;;;;;;;-4.33;93.46;99992.06;108740;1295;138458;-70
2023/01/09 10:34:58;;;;;;;12.10;6.40;;;;;;;-4.30;93.63;99981.08;109193;1286;22973;-70
2023/01/09 10:37:30;;;;;;;10.70;6.10;;;;;;;-4.26;93.73;99979.40;109542;1284;139286;-71
2023/01/09 10:40:24;;;;;;;10.90;4.90;;;;;;;-4.21;94.00;99979.84;108223;1279;22536;-70
2023/01/09 10:43:03;;;;;;;15.70;10.70;;;;;;;-4.16;94.04;99980.07;105204;1284;139551;-70
2023/01/09 10:45:38;;;;;;;11.90;5.70;;;;;;;-4.13;94.20;99979.02;105309;1285;22575;-71
2023/01/09 10:48:13;;;;;;;15.40;8.90;;;;;;;-4.11;94.27;99975.80;105229;1283;23009;-71
2023/01/09 10:50:40;;;;;;;15.70;8.90;;;;;;;-4.10;94.50;99975.13;105172;1285;139841;-70
2023/01/09 10:53:14;;;;;;;;;;;;;;;-4.06;94.57;99977.29;105340;1280;25433;-72
2023/01/09 10:55:46;;;;;;;13.20;7.30;;;;;;;-4.04;94.91;99970.18;105260;1285;124882;-69
2023/01/09 10:58:18;;;;;;;13.70;6.10;;;;;;;-4.04;94.93;99970.80;109725;1284;22222;-72
2023/01/09 11:00:45;;;;;;;19.70;8.50;;;;;;;-4.02;95.12;99964.77;109780;1273;138315;-72
2023/01/09 11:03:13;;;;;;;15.10;10.30;;;;;;;-3.98;95.12;99962.84;109976;1274;23098;-71
2023/01/09 11:05:39;;;;;;;13.70;6.80;;;;;;;-3.96;95.19;99964.75;110001;1272;22338;-71
2023/01/09 11:08:12;;;;;;;;;;;;;;;-3.94;95.48;99968.04;109931;1276;138197;-71
2023/01/09 11:10:51;;;;;;;8.00;4.80;;;;;;;-3.92;95.42;99967.36;109924;1277;22338;-71
2023/01/09 11:13:22;;;;;;;10.70;5.30;;;;;;;-3.90;95.56;99962.17;109966;1277;139064;-68
2023/01/09 11:15:57;;;;;;;12.50;6.60;;;;;;;-3.88;95.66;99961.21;110120;1274;22189;-68
2023/01/09 11:18:24;;;;;;;11.40;6.90;;;;;;;-3.85;95.67;99962.14;110098;1273;23118;-68
2023/01/09 11:20:51;;;;;;;;;;;;;;;-3.82;95.83;99954.75;109925;1273;138829;-68
2023/01/09 11:23:31;;;;;;;8.40;4.80;;;;;;;-3.81;95.75;99953.03;110053;1273;23299;-67
2023/01/09 11:25:59;;;;;;;14.50;7.50;;;;;;;-3.80;95.67;99959.55;109935;1273;137968;-67
2023/01/09 11:28:26;;;;;;;9.00;5.20;;;;;;;-3.80;95.89;99952.94;110141;1278;22266;-68
2023/01/09 11:31:00;;;;;;;11.20;5.20;;;;;;;-3.78;95.87;99954.78;109907;1277;139873;-68
2023/01/09 11:33:27;;;;;;;10.50;5.00;;;;;;;-3.76;95.92;99955.64;109971;1278;22210;-68
2023/01/09 11:36:00;;;;;;;8.60;5.70;;;;;;;-3.75;96.06;99957.06;110021;1272;22261;-67
2023/01/09 11:38:27;;;;;;;12.40;6.90;;;;;;;-3.74;96.09;99951.96;109879;1278;138774;-67
2023/01/09 11:41:02;;;;;;;8.90;5.20;;;;;;;-3.72;96.23;99952.02;109982;1278;22439;-68
2023/01/09 11:43:37;;;;;;;10.80;5.50;;;;;;;-3.71;96.09;99948.52;109937;1278;137795;-67
2023/01/09 11:46:06;;;;;;;11.50;5.30;;;;;;;-3.70;96.22;99949.98;110038;1276;22250;-67